sensor_id;sensor_type;location;lat;lon;timestamp;temperature;humidity
7240;DHT22;3661;53.288;10.458;2023-07-13T00:02:08;18.70;99.90
7240;DHT22;3661;53.288;10.458;2023-07-13T00:04:41;18.60;99.90
7240;DHT22;3661;53.288;10.458;2023-07-13T00:07:13;18.60;99.90
7240;DHT22;3661;53.288;10.458;2023-07-13T00:09:45;18.60;99.90
7240;DHT22;3661;53.288;10.458;2023-07-13T00:12:24;18.60;99.90
7240;DHT22;3661;53.288;10.458;2023-07-13T00:14:59;18.60;99.90
7240;DHT22;3661;53.288;10.458;2023-07-13T00:17:31;18.60;99.90
7240;DHT22;3661;53.288;10.458;2023-07-13T00:20:04;18.60;99.90
7240;DHT22;3661;53.288;10.458;2023-07-13T00:22:37;18.60;99.90
7240;DHT22;3661;53.288;10.458;2023-07-13T00:25:10;18.50;99.90
7240;DHT22;3661;53.288;10.458;2023-07-13T00:27:43;18.50;99.90
7240;DHT22;3661;53.288;10.458;2023-07-13T00:30:17;18.50;99.90
7240;DHT22;3661;53.288;10.458;2023-07-13T00:32:49;18.40;99.90
7240;DHT22;3661;53.288;10.458;2023-07-13T00:35:22;18.40;99.90
7240;DHT22;3661;53.288;10.458;2023-07-13T00:37:54;18.40;99.90
7240;DHT22;3661;53.288;10.458;2023-07-13T00:40:27;18.30;99.90
7240;DHT22;3661;53.288;10.458;2023-07-13T00:42:59;18.30;99.90
7240;DHT22;3661;53.288;10.458;2023-07-13T00:46:15;18.20;99.90
7240;DHT22;3661;53.288;10.458;2023-07-13T00:48:48;18.20;99.90
7240;DHT22;3661;53.288;10.458;2023-07-13T00:51:29;18.10;99.90
7240;DHT22;3661;53.288;10.458;2023-07-13T00:54:04;18.10;99.90
7240;DHT22;3661;53.288;10.458;2023-07-13T00:56:38;18.10;99.90
7240;DHT22;3661;53.288;10.458;2023-07-13T00:59:12;18.00;99.90
7240;DHT22;3661;53.288;10.458;2023-07-13T01:01:46;17.90;99.90
7240;DHT22;3661;53.288;10.458;2023-07-13T01:04:19;17.90;99.90
7240;DHT22;3661;53.288;10.458;2023-07-13T01:06:51;17.90;99.90
7240;DHT22;3661;53.288;10.458;2023-07-13T01:09:25;17.90;99.90
7240;DHT22;3661;53.288;10.458;2023-07-13T01:11:57;17.80;99.90
7240;DHT22;3661;53.288;10.458;2023-07-13T01:14:30;17.80;99.90
7240;DHT22;3661;53.288;10.458;2023-07-13T01:17:04;17.80;99.90
7240;DHT22;3661;53.288;10.458;2023-07-13T01:19:37;17.70;99.90
7240;DHT22;3661;53.288;10.458;2023-07-13T01:22:13;17.70;99.90
7240;DHT22;3661;53.288;10.458;2023-07-13T01:24:47;17.70;99.90
7240;DHT22;3661;53.288;10.458;2023-07-13T01:27:22;17.60;99.90
7240;DHT22;3661;53.288;10.458;2023-07-13T01:29:55;17.60;99.90
7240;DHT22;3661;53.288;10.458;2023-07-13T01:32:32;17.60;99.90
7240;DHT22;3661;53.288;10.458;2023-07-13T01:35:05;17.50;99.90
7240;DHT22;3661;53.288;10.458;2023-07-13T01:37:38;17.50;99.90
7240;DHT22;3661;53.288;10.458;2023-07-13T01:40:11;17.50;99.90
7240;DHT22;3661;53.288;10.458;2023-07-13T01:42:43;17.40;99.90
7240;DHT22;3661;53.288;10.458;2023-07-13T01:45:15;17.40;99.90
7240;DHT22;3661;53.288;10.458;2023-07-13T01:47:47;17.40;99.90
7240;DHT22;3661;53.288;10.458;2023-07-13T01:50:20;17.30;99.90
7240;DHT22;3661;53.288;10.458;2023-07-13T01:52:54;17.30;99.90
7240;DHT22;3661;53.288;10.458;2023-07-13T01:55:26;17.30;99.90
7240;DHT22;3661;53.288;10.458;2023-07-13T01:57:58;17.20;99.90
7240;DHT22;3661;53.288;10.458;2023-07-13T02:00:30;17.20;99.90
7240;DHT22;3661;53.288;10.458;2023-07-13T02:03:03;17.20;99.90
7240;DHT22;3661;53.288;10.458;2023-07-13T02:05:36;17.20;99.90
7240;DHT22;3661;53.288;10.458;2023-07-13T02:08:09;17.10;99.90
7240;DHT22;3661;53.288;10.458;2023-07-13T02:10:41;17.10;99.90
7240;DHT22;3661;53.288;10.458;2023-07-13T02:13:14;17.10;99.90
7240;DHT22;3661;53.288;10.458;2023-07-13T02:15:46;17.10;99.90
7240;DHT22;3661;53.288;10.458;2023-07-13T02:18:18;17.00;99.90
7240;DHT22;3661;53.288;10.458;2023-07-13T02:20:50;17.00;99.90
7240;DHT22;3661;53.288;10.458;2023-07-13T02:23:24;17.00;99.90
7240;DHT22;3661;53.288;10.458;2023-07-13T02:25:56;16.90;99.90
7240;DHT22;3661;53.288;10.458;2023-07-13T02:28:28;16.90;99.90
7240;DHT22;3661;53.288;10.458;2023-07-13T02:31:07;16.80;99.90
7240;DHT22;3661;53.288;10.458;2023-07-13T02:33:40;16.80;99.90
7240;DHT22;3661;53.288;10.458;2023-07-13T02:36:13;16.80;99.90
7240;DHT22;3661;53.288;10.458;2023-07-13T02:38:49;16.80;99.90
7240;DHT22;3661;53.288;10.458;2023-07-13T02:41:21;16.70;99.90
7240;DHT22;3661;53.288;10.458;2023-07-13T02:43:53;16.70;99.90
7240;DHT22;3661;53.288;10.458;2023-07-13T02:46:34;16.70;99.90
7240;DHT22;3661;53.288;10.458;2023-07-13T02:49:07;16.60;99.90
7240;DHT22;3661;53.288;10.458;2023-07-13T02:51:39;16.60;99.90
7240;DHT22;3661;53.288;10.458;2023-07-13T02:54:12;16.60;99.90
7240;DHT22;3661;53.288;10.458;2023-07-13T02:56:44;16.50;99.90
7240;DHT22;3661;53.288;10.458;2023-07-13T02:59:16;16.50;99.90
7240;DHT22;3661;53.288;10.458;2023-07-13T03:01:49;16.40;99.90
7240;DHT22;3661;53.288;10.458;2023-07-13T03:04:21;16.40;99.90
7240;DHT22;3661;53.288;10.458;2023-07-13T03:06:53;16.40;99.90
7240;DHT22;3661;53.288;10.458;2023-07-13T03:09:29;16.40;99.90
7240;DHT22;3661;53.288;10.458;2023-07-13T03:12:02;16.40;99.90
7240;DHT22;3661;53.288;10.458;2023-07-13T03:14:34;16.30;99.90
7240;DHT22;3661;53.288;10.458;2023-07-13T03:17:06;16.30;99.90
7240;DHT22;3661;53.288;10.458;2023-07-13T03:19:38;16.30;99.90
7240;DHT22;3661;53.288;10.458;2023-07-13T03:22:10;16.20;99.90
7240;DHT22;3661;53.288;10.458;2023-07-13T03:24:44;16.20;99.90
7240;DHT22;3661;53.288;10.458;2023-07-13T03:27:17;16.20;99.90
7240;DHT22;3661;53.288;10.458;2023-07-13T03:29:49;16.20;99.90
7240;DHT22;3661;53.288;10.458;2023-07-13T03:32:22;16.20;99.90
7240;DHT22;3661;53.288;10.458;2023-07-13T03:34:54;16.10;99.90
7240;DHT22;3661;53.288;10.458;2023-07-13T03:37:26;16.10;99.90
7240;DHT22;3661;53.288;10.458;2023-07-13T03:40:00;16.10;99.90
7240;DHT22;3661;53.288;10.458;2023-07-13T03:42:32;16.10;99.90
7240;DHT22;3661;53.288;10.458;2023-07-13T03:45:05;16.00;99.90
7240;DHT22;3661;53.288;10.458;2023-07-13T03:47:37;16.00;99.90
7240;DHT22;3661;53.288;10.458;2023-07-13T03:50:09;16.00;99.90
7240;DHT22;3661;53.288;10.458;2023-07-13T03:52:42;16.00;99.90
7240;DHT22;3661;53.288;10.458;2023-07-13T03:55:15;16.00;99.90
7240;DHT22;3661;53.288;10.458;2023-07-13T03:57:47;16.00;99.90
7240;DHT22;3661;53.288;10.458;2023-07-13T04:00:20;15.90;99.90
7240;DHT22;3661;53.288;10.458;2023-07-13T04:02:52;15.90;99.90
7240;DHT22;3661;53.288;10.458;2023-07-13T04:05:24;16.00;99.90
7240;DHT22;3661;53.288;10.458;2023-07-13T04:07:56;15.90;99.90
7240;DHT22;3661;53.288;10.458;2023-07-13T04:10:29;15.90;99.90
7240;DHT22;3661;53.288;10.458;2023-07-13T04:13:02;15.90;99.90
7240;DHT22;3661;53.288;10.458;2023-07-13T04:15:34;15.90;99.90
7240;DHT22;3661;53.288;10.458;2023-07-13T04:18:06;15.90;99.90
7240;DHT22;3661;53.288;10.458;2023-07-13T04:20:38;15.90;99.90
7240;DHT22;3661;53.288;10.458;2023-07-13T04:23:10;16.00;99.90
7240;DHT22;3661;53.288;10.458;2023-07-13T04:25:45;16.00;99.90
7240;DHT22;3661;53.288;10.458;2023-07-13T04:28:20;16.10;99.90
7240;DHT22;3661;53.288;10.458;2023-07-13T04:30:52;16.20;99.90
7240;DHT22;3661;53.288;10.458;2023-07-13T04:33:25;16.20;99.90
7240;DHT22;3661;53.288;10.458;2023-07-13T04:35:58;16.30;99.90
7240;DHT22;3661;53.288;10.458;2023-07-13T04:38:31;16.30;99.90
7240;DHT22;3661;53.288;10.458;2023-07-13T04:41:07;16.40;99.90
7240;DHT22;3661;53.288;10.458;2023-07-13T04:43:39;16.50;99.90
7240;DHT22;3661;53.288;10.458;2023-07-13T04:46:17;16.50;99.90
7240;DHT22;3661;53.288;10.458;2023-07-13T04:48:50;16.60;99.90
7240;DHT22;3661;53.288;10.458;2023-07-13T04:51:24;16.60;99.90
7240;DHT22;3661;53.288;10.458;2023-07-13T04:53:56;16.70;99.90
7240;DHT22;3661;53.288;10.458;2023-07-13T04:56:31;16.70;99.90
7240;DHT22;3661;53.288;10.458;2023-07-13T04:59:03;16.80;99.90
7240;DHT22;3661;53.288;10.458;2023-07-13T05:01:35;16.80;99.90
7240;DHT22;3661;53.288;10.458;2023-07-13T05:04:08;16.90;99.90
7240;DHT22;3661;53.288;10.458;2023-07-13T05:06:40;16.90;99.90
7240;DHT22;3661;53.288;10.458;2023-07-13T05:09:12;17.00;99.90
7240;DHT22;3661;53.288;10.458;2023-07-13T05:11:45;17.00;99.90
7240;DHT22;3661;53.288;10.458;2023-07-13T05:14:17;17.00;99.90
7240;DHT22;3661;53.288;10.458;2023-07-13T05:16:50;17.10;99.90
7240;DHT22;3661;53.288;10.458;2023-07-13T05:19:22;17.10;99.90
7240;DHT22;3661;53.288;10.458;2023-07-13T05:21:54;17.20;99.90
7240;DHT22;3661;53.288;10.458;2023-07-13T05:24:26;17.20;99.90
7240;DHT22;3661;53.288;10.458;2023-07-13T05:27:00;17.30;99.90
7240;DHT22;3661;53.288;10.458;2023-07-13T05:29:32;17.30;99.90
7240;DHT22;3661;53.288;10.458;2023-07-13T05:32:04;17.30;99.90
7240;DHT22;3661;53.288;10.458;2023-07-13T05:34:37;17.40;99.90
7240;DHT22;3661;53.288;10.458;2023-07-13T05:37:09;17.40;99.90
7240;DHT22;3661;53.288;10.458;2023-07-13T05:39:41;17.50;99.90
7240;DHT22;3661;53.288;10.458;2023-07-13T05:42:14;17.50;99.90
7240;DHT22;3661;53.288;10.458;2023-07-13T05:44:46;17.60;99.90
7240;DHT22;3661;53.288;10.458;2023-07-13T05:47:19;17.60;99.90
7240;DHT22;3661;53.288;10.458;2023-07-13T05:49:51;17.70;99.90
7240;DHT22;3661;53.288;10.458;2023-07-13T05:52:23;17.70;99.90
7240;DHT22;3661;53.288;10.458;2023-07-13T05:54:55;17.70;99.90
7240;DHT22;3661;53.288;10.458;2023-07-13T05:57:29;17.80;99.90
7240;DHT22;3661;53.288;10.458;2023-07-13T06:00:03;17.80;99.90
7240;DHT22;3661;53.288;10.458;2023-07-13T06:02:36;17.90;99.90
7240;DHT22;3661;53.288;10.458;2023-07-13T06:05:08;17.90;99.90
7240;DHT22;3661;53.288;10.458;2023-07-13T06:07:41;18.00;99.90
7240;DHT22;3661;53.288;10.458;2023-07-13T06:10:13;18.00;99.90
7240;DHT22;3661;53.288;10.458;2023-07-13T06:12:46;18.10;99.90
7240;DHT22;3661;53.288;10.458;2023-07-13T06:15:19;18.10;99.90
7240;DHT22;3661;53.288;10.458;2023-07-13T06:17:51;18.20;99.90
7240;DHT22;3661;53.288;10.458;2023-07-13T06:20:23;18.20;99.90
7240;DHT22;3661;53.288;10.458;2023-07-13T06:22:55;18.30;99.90
7240;DHT22;3661;53.288;10.458;2023-07-13T06:25:27;18.40;99.90
7240;DHT22;3661;53.288;10.458;2023-07-13T06:28:01;18.40;99.90
7240;DHT22;3661;53.288;10.458;2023-07-13T06:30:33;18.50;99.90
7240;DHT22;3661;53.288;10.458;2023-07-13T06:33:05;18.50;99.90
7240;DHT22;3661;53.288;10.458;2023-07-13T06:35:37;18.60;99.90
7240;DHT22;3661;53.288;10.458;2023-07-13T06:38:09;18.60;99.90
7240;DHT22;3661;53.288;10.458;2023-07-13T06:40:41;18.70;99.90
7240;DHT22;3661;53.288;10.458;2023-07-13T06:43:15;18.70;99.90
7240;DHT22;3661;53.288;10.458;2023-07-13T06:45:48;18.80;99.90
7240;DHT22;3661;53.288;10.458;2023-07-13T06:48:21;18.90;99.90
7240;DHT22;3661;53.288;10.458;2023-07-13T06:50:54;19.00;99.90
7240;DHT22;3661;53.288;10.458;2023-07-13T06:53:26;19.00;99.90
7240;DHT22;3661;53.288;10.458;2023-07-13T06:55:58;19.10;99.90
7240;DHT22;3661;53.288;10.458;2023-07-13T06:58:34;19.20;99.90
7240;DHT22;3661;53.288;10.458;2023-07-13T07:01:06;19.30;99.90
7240;DHT22;3661;53.288;10.458;2023-07-13T07:03:38;19.30;99.90
7240;DHT22;3661;53.288;10.458;2023-07-13T07:06:15;19.40;99.90
7240;DHT22;3661;53.288;10.458;2023-07-13T07:08:48;19.50;99.90
7240;DHT22;3661;53.288;10.458;2023-07-13T07:11:22;19.60;99.90
7240;DHT22;3661;53.288;10.458;2023-07-13T07:13:55;19.60;99.90
7240;DHT22;3661;53.288;10.458;2023-07-13T07:16:27;19.70;99.90
7240;DHT22;3661;53.288;10.458;2023-07-13T07:19:00;19.80;99.90
7240;DHT22;3661;53.288;10.458;2023-07-13T07:21:32;19.80;99.90
7240;DHT22;3661;53.288;10.458;2023-07-13T07:24:04;19.90;99.90
7240;DHT22;3661;53.288;10.458;2023-07-13T07:26:37;20.00;99.90
7240;DHT22;3661;53.288;10.458;2023-07-13T07:29:10;20.00;99.90
7240;DHT22;3661;53.288;10.458;2023-07-13T07:31:42;20.10;99.90
7240;DHT22;3661;53.288;10.458;2023-07-13T07:34:14;20.20;99.90
7240;DHT22;3661;53.288;10.458;2023-07-13T07:36:46;20.30;99.90
7240;DHT22;3661;53.288;10.458;2023-07-13T07:39:19;20.40;99.90
7240;DHT22;3661;53.288;10.458;2023-07-13T07:41:51;20.40;99.90
7240;DHT22;3661;53.288;10.458;2023-07-13T07:44:24;20.50;99.90
7240;DHT22;3661;53.288;10.458;2023-07-13T07:46:57;20.60;99.90
7240;DHT22;3661;53.288;10.458;2023-07-13T07:49:30;20.70;99.90
7240;DHT22;3661;53.288;10.458;2023-07-13T07:52:02;20.80;99.90
7240;DHT22;3661;53.288;10.458;2023-07-13T07:54:34;20.90;99.90
7240;DHT22;3661;53.288;10.458;2023-07-13T07:57:06;21.00;99.90
7240;DHT22;3661;53.288;10.458;2023-07-13T07:59:41;21.10;99.90
7240;DHT22;3661;53.288;10.458;2023-07-13T08:02:13;21.20;99.90
7240;DHT22;3661;53.288;10.458;2023-07-13T08:04:46;21.30;99.90
7240;DHT22;3661;53.288;10.458;2023-07-13T08:07:18;21.40;99.90
7240;DHT22;3661;53.288;10.458;2023-07-13T08:09:52;21.50;99.90
7240;DHT22;3661;53.288;10.458;2023-07-13T08:12:27;21.60;99.90
7240;DHT22;3661;53.288;10.458;2023-07-13T08:15:09;21.70;99.90
7240;DHT22;3661;53.288;10.458;2023-07-13T08:17:41;21.80;99.90
7240;DHT22;3661;53.288;10.458;2023-07-13T08:20:14;22.00;99.90
7240;DHT22;3661;53.288;10.458;2023-07-13T08:22:46;22.10;99.90
7240;DHT22;3661;53.288;10.458;2023-07-13T08:25:18;22.20;99.90
7240;DHT22;3661;53.288;10.458;2023-07-13T08:27:51;22.30;99.90
7240;DHT22;3661;53.288;10.458;2023-07-13T08:30:24;22.40;99.90
7240;DHT22;3661;53.288;10.458;2023-07-13T08:32:56;22.50;99.90
7240;DHT22;3661;53.288;10.458;2023-07-13T08:35:29;22.60;99.90
7240;DHT22;3661;53.288;10.458;2023-07-13T08:38:01;22.70;99.90
7240;DHT22;3661;53.288;10.458;2023-07-13T08:40:34;22.80;99.90
7240;DHT22;3661;53.288;10.458;2023-07-13T08:43:11;22.90;99.90
7240;DHT22;3661;53.288;10.458;2023-07-13T08:45:48;23.10;99.90
7240;DHT22;3661;53.288;10.458;2023-07-13T08:48:25;23.30;99.90
7240;DHT22;3661;53.288;10.458;2023-07-13T08:51:04;23.40;99.90
7240;DHT22;3661;53.288;10.458;2023-07-13T08:53:42;23.50;99.90
7240;DHT22;3661;53.288;10.458;2023-07-13T08:56:21;23.70;99.90
7240;DHT22;3661;53.288;10.458;2023-07-13T08:58:56;23.90;99.90
7240;DHT22;3661;53.288;10.458;2023-07-13T09:01:39;24.00;99.90
7240;DHT22;3661;53.288;10.458;2023-07-13T09:04:16;24.20;99.90
7240;DHT22;3661;53.288;10.458;2023-07-13T09:06:55;24.40;99.90
7240;DHT22;3661;53.288;10.458;2023-07-13T09:09:37;24.50;99.90
7240;DHT22;3661;53.288;10.458;2023-07-13T09:12:16;24.70;99.90
7240;DHT22;3661;53.288;10.458;2023-07-13T09:14:51;24.90;99.90
7240;DHT22;3661;53.288;10.458;2023-07-13T09:17:28;25.00;99.90
7240;DHT22;3661;53.288;10.458;2023-07-13T09:20:06;25.20;99.90
7240;DHT22;3661;53.288;10.458;2023-07-13T09:22:42;25.30;99.90
7240;DHT22;3661;53.288;10.458;2023-07-13T09:25:23;25.50;99.90
7240;DHT22;3661;53.288;10.458;2023-07-13T09:27:59;25.50;99.90
7240;DHT22;3661;53.288;10.458;2023-07-13T09:30:36;25.60;99.90
7240;DHT22;3661;53.288;10.458;2023-07-13T09:33:11;25.50;99.70
7240;DHT22;3661;53.288;10.458;2023-07-13T09:35:45;25.50;99.70
7240;DHT22;3661;53.288;10.458;2023-07-13T09:38:18;25.50;99.20
7240;DHT22;3661;53.288;10.458;2023-07-13T09:40:59;25.50;98.90
7240;DHT22;3661;53.288;10.458;2023-07-13T09:43:34;25.60;98.70
7240;DHT22;3661;53.288;10.458;2023-07-13T09:46:20;25.70;98.60
7240;DHT22;3661;53.288;10.458;2023-07-13T09:48:56;25.80;98.20
7240;DHT22;3661;53.288;10.458;2023-07-13T09:51:28;25.80;98.10
7240;DHT22;3661;53.288;10.458;2023-07-13T09:54:00;26.00;98.10
7240;DHT22;3661;53.288;10.458;2023-07-13T09:56:33;26.10;97.90
7240;DHT22;3661;53.288;10.458;2023-07-13T09:59:18;26.10;97.70
7240;DHT22;3661;53.288;10.458;2023-07-13T10:01:51;26.10;97.50
7240;DHT22;3661;53.288;10.458;2023-07-13T10:04:28;26.10;97.60
7240;DHT22;3661;53.288;10.458;2023-07-13T10:07:08;25.90;97.70
7240;DHT22;3661;53.288;10.458;2023-07-13T10:09:41;25.80;97.90
7240;DHT22;3661;53.288;10.458;2023-07-13T10:12:14;25.50;97.90
7240;DHT22;3661;53.288;10.458;2023-07-13T10:14:48;25.30;98.20
7240;DHT22;3661;53.288;10.458;2023-07-13T10:17:27;25.20;98.40
7240;DHT22;3661;53.288;10.458;2023-07-13T10:20:04;25.00;98.60
7240;DHT22;3661;53.288;10.458;2023-07-13T10:22:44;24.90;99.00
7240;DHT22;3661;53.288;10.458;2023-07-13T10:25:21;24.80;99.30
7240;DHT22;3661;53.288;10.458;2023-07-13T10:27:58;24.80;99.40
7240;DHT22;3661;53.288;10.458;2023-07-13T10:30:35;24.90;99.40
7240;DHT22;3661;53.288;10.458;2023-07-13T10:33:10;25.00;99.30
7240;DHT22;3661;53.288;10.458;2023-07-13T10:35:50;25.10;98.80
7240;DHT22;3661;53.288;10.458;2023-07-13T10:38:24;25.40;98.80
7240;DHT22;3661;53.288;10.458;2023-07-13T10:41:02;25.60;99.20
7240;DHT22;3661;53.288;10.458;2023-07-13T10:43:41;25.90;99.30
7240;DHT22;3661;53.288;10.458;2023-07-13T10:46:16;26.20;98.20
7240;DHT22;3661;53.288;10.458;2023-07-13T10:48:51;26.50;97.50
7240;DHT22;3661;53.288;10.458;2023-07-13T10:51:26;26.70;97.00
7240;DHT22;3661;53.288;10.458;2023-07-13T10:54:21;26.90;96.60
7240;DHT22;3661;53.288;10.458;2023-07-13T10:57:15;26.90;96.30
7240;DHT22;3661;53.288;10.458;2023-07-13T10:59:49;26.80;96.00
7240;DHT22;3661;53.288;10.458;2023-07-13T11:02:40;26.70;95.90
7240;DHT22;3661;53.288;10.458;2023-07-13T11:05:25;26.50;95.90
7240;DHT22;3661;53.288;10.458;2023-07-13T11:08:13;26.40;95.80
7240;DHT22;3661;53.288;10.458;2023-07-13T11:10:50;26.30;95.90
7240;DHT22;3661;53.288;10.458;2023-07-13T11:16:37;26.20;95.90
7240;DHT22;3661;53.288;10.458;2023-07-13T11:19:35;26.30;95.60
7240;DHT22;3661;53.288;10.458;2023-07-13T11:22:21;26.30;95.00
7240;DHT22;3661;53.288;10.458;2023-07-13T11:25:00;26.40;94.90
7240;DHT22;3661;53.288;10.458;2023-07-13T11:31:03;26.50;94.50
7240;DHT22;3661;53.288;10.458;2023-07-13T11:33:55;26.60;94.20
7240;DHT22;3661;53.288;10.458;2023-07-13T11:36:36;26.60;94.10
7240;DHT22;3661;53.288;10.458;2023-07-13T11:39:18;26.60;94.00
7240;DHT22;3661;53.288;10.458;2023-07-13T11:41:55;26.60;93.70
7240;DHT22;3661;53.288;10.458;2023-07-13T11:44:29;26.60;93.50
7240;DHT22;3661;53.288;10.458;2023-07-13T11:47:09;26.50;93.40
7240;DHT22;3661;53.288;10.458;2023-07-13T11:49:43;26.50;93.30
7240;DHT22;3661;53.288;10.458;2023-07-13T11:52:18;26.50;93.10
7240;DHT22;3661;53.288;10.458;2023-07-13T11:54:53;26.50;93.20
7240;DHT22;3661;53.288;10.458;2023-07-13T11:57:30;26.50;93.40
7240;DHT22;3661;53.288;10.458;2023-07-13T12:00:10;26.50;93.20
7240;DHT22;3661;53.288;10.458;2023-07-13T12:02:45;26.50;93.10
7240;DHT22;3661;53.288;10.458;2023-07-13T12:05:18;26.60;93.10
7240;DHT22;3661;53.288;10.458;2023-07-13T12:07:51;26.50;93.10
7240;DHT22;3661;53.288;10.458;2023-07-13T12:10:27;26.60;93.10
7240;DHT22;3661;53.288;10.458;2023-07-13T12:13:04;26.70;93.00
7240;DHT22;3661;53.288;10.458;2023-07-13T12:15:39;26.80;93.10
7240;DHT22;3661;53.288;10.458;2023-07-13T12:18:14;26.90;93.00
7240;DHT22;3661;53.288;10.458;2023-07-13T12:20:47;27.10;92.50
7240;DHT22;3661;53.288;10.458;2023-07-13T12:23:25;27.20;92.20
7240;DHT22;3661;53.288;10.458;2023-07-13T12:25:59;27.40;91.70
7240;DHT22;3661;53.288;10.458;2023-07-13T12:28:37;27.40;91.30
7240;DHT22;3661;53.288;10.458;2023-07-13T12:31:24;27.50;91.20
7240;DHT22;3661;53.288;10.458;2023-07-13T12:33:58;27.50;91.10
7240;DHT22;3661;53.288;10.458;2023-07-13T12:36:33;27.50;91.00
7240;DHT22;3661;53.288;10.458;2023-07-13T12:39:15;27.40;91.00
7240;DHT22;3661;53.288;10.458;2023-07-13T12:41:48;27.30;91.30
7240;DHT22;3661;53.288;10.458;2023-07-13T12:44:27;27.10;91.70
7240;DHT22;3661;53.288;10.458;2023-07-13T12:47:04;27.00;91.90
7240;DHT22;3661;53.288;10.458;2023-07-13T12:49:41;26.70;91.90
7240;DHT22;3661;53.288;10.458;2023-07-13T12:52:16;26.50;92.00
7240;DHT22;3661;53.288;10.458;2023-07-13T12:54:55;26.30;92.40
7240;DHT22;3661;53.288;10.458;2023-07-13T12:57:28;26.20;92.80
7240;DHT22;3661;53.288;10.458;2023-07-13T13:00:03;26.00;93.00
7240;DHT22;3661;53.288;10.458;2023-07-13T13:02:36;25.90;92.80
7240;DHT22;3661;53.288;10.458;2023-07-13T13:05:13;25.80;92.60
7240;DHT22;3661;53.288;10.458;2023-07-13T13:07:45;25.70;92.60
7240;DHT22;3661;53.288;10.458;2023-07-13T13:10:18;25.50;93.00
7240;DHT22;3661;53.288;10.458;2023-07-13T13:12:52;25.40;94.20
7240;DHT22;3661;53.288;10.458;2023-07-13T13:15:25;25.10;95.00
7240;DHT22;3661;53.288;10.458;2023-07-13T13:17:58;24.90;95.10
7240;DHT22;3661;53.288;10.458;2023-07-13T13:20:30;24.60;95.20
7240;DHT22;3661;53.288;10.458;2023-07-13T13:23:02;24.20;95.60
7240;DHT22;3661;53.288;10.458;2023-07-13T13:25:35;24.00;96.00
7240;DHT22;3661;53.288;10.458;2023-07-13T13:28:13;23.70;96.40
7240;DHT22;3661;53.288;10.458;2023-07-13T13:30:50;23.40;96.70
7240;DHT22;3661;53.288;10.458;2023-07-13T13:33:23;23.10;97.30
7240;DHT22;3661;53.288;10.458;2023-07-13T13:35:55;22.90;97.80
7240;DHT22;3661;53.288;10.458;2023-07-13T13:38:27;22.70;98.40
7240;DHT22;3661;53.288;10.458;2023-07-13T13:41:00;22.40;98.90
7240;DHT22;3661;53.288;10.458;2023-07-13T13:43:32;22.30;99.80
7240;DHT22;3661;53.288;10.458;2023-07-13T13:46:14;22.20;99.90
7240;DHT22;3661;53.288;10.458;2023-07-13T13:48:47;22.10;99.90
7240;DHT22;3661;53.288;10.458;2023-07-13T13:51:21;22.00;99.90
7240;DHT22;3661;53.288;10.458;2023-07-13T13:53:57;21.90;99.90
7240;DHT22;3661;53.288;10.458;2023-07-13T13:56:29;21.80;99.90
7240;DHT22;3661;53.288;10.458;2023-07-13T13:59:01;21.80;99.90
7240;DHT22;3661;53.288;10.458;2023-07-13T14:01:36;21.80;99.90
7240;DHT22;3661;53.288;10.458;2023-07-13T14:04:13;21.80;99.90
7240;DHT22;3661;53.288;10.458;2023-07-13T14:06:47;21.80;99.90
7240;DHT22;3661;53.288;10.458;2023-07-13T14:09:19;21.70;99.90
7240;DHT22;3661;53.288;10.458;2023-07-13T14:11:55;21.60;99.90
7240;DHT22;3661;53.288;10.458;2023-07-13T14:14:28;21.60;99.90
7240;DHT22;3661;53.288;10.458;2023-07-13T14:17:02;21.60;99.90
7240;DHT22;3661;53.288;10.458;2023-07-13T14:19:34;21.60;99.90
7240;DHT22;3661;53.288;10.458;2023-07-13T14:22:07;21.50;99.90
7240;DHT22;3661;53.288;10.458;2023-07-13T14:24:39;21.50;99.90
7240;DHT22;3661;53.288;10.458;2023-07-13T14:27:11;21.50;99.90
7240;DHT22;3661;53.288;10.458;2023-07-13T14:29:44;21.40;99.90
7240;DHT22;3661;53.288;10.458;2023-07-13T14:32:17;21.40;99.90
7240;DHT22;3661;53.288;10.458;2023-07-13T14:34:49;21.40;99.90
7240;DHT22;3661;53.288;10.458;2023-07-13T14:37:22;21.40;99.90
7240;DHT22;3661;53.288;10.458;2023-07-13T14:39:54;21.40;99.90
7240;DHT22;3661;53.288;10.458;2023-07-13T14:42:27;21.30;99.90
7240;DHT22;3661;53.288;10.458;2023-07-13T14:44:59;21.30;99.90
7240;DHT22;3661;53.288;10.458;2023-07-13T14:47:32;21.30;99.90
7240;DHT22;3661;53.288;10.458;2023-07-13T14:50:07;21.30;99.90
7240;DHT22;3661;53.288;10.458;2023-07-13T14:52:44;21.30;99.90
7240;DHT22;3661;53.288;10.458;2023-07-13T14:55:18;21.20;99.90
7240;DHT22;3661;53.288;10.458;2023-07-13T14:57:50;21.30;99.90
7240;DHT22;3661;53.288;10.458;2023-07-13T15:00:22;21.20;99.90
7240;DHT22;3661;53.288;10.458;2023-07-13T15:02:58;21.20;99.90
7240;DHT22;3661;53.288;10.458;2023-07-13T15:05:32;21.20;99.90
7240;DHT22;3661;53.288;10.458;2023-07-13T15:08:05;21.20;99.90
7240;DHT22;3661;53.288;10.458;2023-07-13T15:10:37;21.20;99.90
7240;DHT22;3661;53.288;10.458;2023-07-13T15:13:14;21.20;99.90
7240;DHT22;3661;53.288;10.458;2023-07-13T15:15:48;21.20;99.90
7240;DHT22;3661;53.288;10.458;2023-07-13T15:18:23;21.30;99.90
7240;DHT22;3661;53.288;10.458;2023-07-13T15:20:56;21.30;99.90
7240;DHT22;3661;53.288;10.458;2023-07-13T15:23:33;21.30;99.90
7240;DHT22;3661;53.288;10.458;2023-07-13T15:26:05;21.40;99.90
7240;DHT22;3661;53.288;10.458;2023-07-13T15:28:38;21.40;99.90
7240;DHT22;3661;53.288;10.458;2023-07-13T15:31:20;21.50;99.90
7240;DHT22;3661;53.288;10.458;2023-07-13T15:33:55;21.50;99.90
7240;DHT22;3661;53.288;10.458;2023-07-13T15:36:28;21.50;99.90
7240;DHT22;3661;53.288;10.458;2023-07-13T15:39:00;21.50;99.90
7240;DHT22;3661;53.288;10.458;2023-07-13T15:41:32;21.50;99.90
7240;DHT22;3661;53.288;10.458;2023-07-13T15:44:22;21.50;99.90
7240;DHT22;3661;53.288;10.458;2023-07-13T15:46:55;21.50;99.90
7240;DHT22;3661;53.288;10.458;2023-07-13T15:49:29;21.50;99.90
7240;DHT22;3661;53.288;10.458;2023-07-13T15:52:01;21.60;99.90
7240;DHT22;3661;53.288;10.458;2023-07-13T15:54:33;21.60;99.90
7240;DHT22;3661;53.288;10.458;2023-07-13T15:57:09;21.70;99.90
7240;DHT22;3661;53.288;10.458;2023-07-13T15:59:42;21.80;99.90
7240;DHT22;3661;53.288;10.458;2023-07-13T16:02:17;21.90;99.90
7240;DHT22;3661;53.288;10.458;2023-07-13T16:04:51;22.10;99.90
7240;DHT22;3661;53.288;10.458;2023-07-13T16:07:23;22.20;99.90
7240;DHT22;3661;53.288;10.458;2023-07-13T16:09:56;22.40;99.90
7240;DHT22;3661;53.288;10.458;2023-07-13T16:12:28;22.60;99.90
7240;DHT22;3661;53.288;10.458;2023-07-13T16:15:02;22.80;99.90
7240;DHT22;3661;53.288;10.458;2023-07-13T16:17:34;23.00;99.90
7240;DHT22;3661;53.288;10.458;2023-07-13T16:20:13;23.10;99.90
7240;DHT22;3661;53.288;10.458;2023-07-13T16:22:47;23.30;99.90
7240;DHT22;3661;53.288;10.458;2023-07-13T16:25:22;23.40;99.90
7240;DHT22;3661;53.288;10.458;2023-07-13T16:27:55;23.50;99.90
7240;DHT22;3661;53.288;10.458;2023-07-13T16:30:31;23.60;99.90
7240;DHT22;3661;53.288;10.458;2023-07-13T16:33:04;23.70;99.90
7240;DHT22;3661;53.288;10.458;2023-07-13T16:35:40;23.70;99.90
7240;DHT22;3661;53.288;10.458;2023-07-13T16:38:16;23.70;99.90